sensor_id;sensor_type;location;lat;lon;timestamp;P1;durP1;ratioP1;P2;durP2;ratioP2
4290;SDS011;2159;50.906;7.152;2023-08-30T00:00:12;7.23;;;5.90;;
4290;SDS011;2159;50.906;7.152;2023-08-30T00:02:40;6.43;;;5.60;;
4290;SDS011;2159;50.906;7.152;2023-08-30T00:05:07;6.23;;;5.63;;
4290;SDS011;2159;50.906;7.152;2023-08-30T00:07:35;5.83;;;5.33;;
4290;SDS011;2159;50.906;7.152;2023-08-30T00:10:05;5.83;;;5.33;;
4290;SDS011;2159;50.906;7.152;2023-08-30T00:12:32;6.20;;;5.60;;
4290;SDS011;2159;50.906;7.152;2023-08-30T00:15:00;8.33;;;5.07;;
4290;SDS011;2159;50.906;7.152;2023-08-30T00:17:27;7.30;;;5.60;;
4290;SDS011;2159;50.906;7.152;2023-08-30T00:19:55;7.63;;;5.60;;
4290;SDS011;2159;50.906;7.152;2023-08-30T00:22:23;5.90;;;5.37;;
4290;SDS011;2159;50.906;7.152;2023-08-30T00:24:50;7.37;;;5.67;;
4290;SDS011;2159;50.906;7.152;2023-08-30T00:27:19;6.03;;;5.43;;
4290;SDS011;2159;50.906;7.152;2023-08-30T00:29:47;6.30;;;5.67;;
4290;SDS011;2159;50.906;7.152;2023-08-30T00:32:15;6.03;;;5.53;;
4290;SDS011;2159;50.906;7.152;2023-08-30T00:34:43;5.67;;;5.17;;
4290;SDS011;2159;50.906;7.152;2023-08-30T00:37:10;5.23;;;4.73;;
4290;SDS011;2159;50.906;7.152;2023-08-30T00:39:38;5.90;;;5.40;;
4290;SDS011;2159;50.906;7.152;2023-08-30T00:42:05;6.23;;;5.10;;
4290;SDS011;2159;50.906;7.152;2023-08-30T00:44:35;5.80;;;5.30;;
4290;SDS011;2159;50.906;7.152;2023-08-30T00:47:02;6.23;;;5.60;;
4290;SDS011;2159;50.906;7.152;2023-08-30T00:49:30;6.23;;;5.73;;
4290;SDS011;2159;50.906;7.152;2023-08-30T00:51:58;6.10;;;5.50;;
4290;SDS011;2159;50.906;7.152;2023-08-30T00:54:26;6.23;;;5.47;;
4290;SDS011;2159;50.906;7.152;2023-08-30T00:56:53;5.90;;;5.40;;
4290;SDS011;2159;50.906;7.152;2023-08-30T00:59:21;5.80;;;5.30;;
4290;SDS011;2159;50.906;7.152;2023-08-30T01:01:50;7.40;;;6.00;;
4290;SDS011;2159;50.906;7.152;2023-08-30T01:04:19;6.53;;;5.93;;
4290;SDS011;2159;50.906;7.152;2023-08-30T01:06:48;6.77;;;6.20;;
4290;SDS011;2159;50.906;7.152;2023-08-30T01:09:16;7.37;;;6.13;;
4290;SDS011;2159;50.906;7.152;2023-08-30T01:11:45;5.70;;;5.20;;
4290;SDS011;2159;50.906;7.152;2023-08-30T01:14:15;6.27;;;5.60;;
4290;SDS011;2159;50.906;7.152;2023-08-30T01:16:43;8.87;;;5.70;;
4290;SDS011;2159;50.906;7.152;2023-08-30T01:19:17;8.70;;;5.70;;
4290;SDS011;2159;50.906;7.152;2023-08-30T01:21:55;6.33;;;5.10;;
4290;SDS011;2159;50.906;7.152;2023-08-30T01:24:26;5.77;;;5.27;;
4290;SDS011;2159;50.906;7.152;2023-08-30T01:29:44;7.27;;;5.70;;
4290;SDS011;2159;50.906;7.152;2023-08-30T01:32:12;7.00;;;5.67;;
4290;SDS011;2159;50.906;7.152;2023-08-30T01:34:40;6.60;;;5.70;;
4290;SDS011;2159;50.906;7.152;2023-08-30T01:37:08;6.60;;;6.00;;
4290;SDS011;2159;50.906;7.152;2023-08-30T01:39:36;7.60;;;6.70;;
4290;SDS011;2159;50.906;7.152;2023-08-30T01:42:04;7.50;;;6.20;;
4290;SDS011;2159;50.906;7.152;2023-08-30T01:44:32;6.70;;;6.10;;
4290;SDS011;2159;50.906;7.152;2023-08-30T01:47:02;6.90;;;6.30;;
4290;SDS011;2159;50.906;7.152;2023-08-30T01:49:30;7.83;;;5.87;;
4290;SDS011;2159;50.906;7.152;2023-08-30T01:51:59;6.30;;;5.70;;
4290;SDS011;2159;50.906;7.152;2023-08-30T01:54:26;6.20;;;5.60;;
4290;SDS011;2159;50.906;7.152;2023-08-30T01:56:54;7.27;;;6.20;;
4290;SDS011;2159;50.906;7.152;2023-08-30T01:59:24;6.90;;;6.20;;
4290;SDS011;2159;50.906;7.152;2023-08-30T02:01:51;9.30;;;6.53;;
4290;SDS011;2159;50.906;7.152;2023-08-30T02:04:20;7.80;;;6.17;;
4290;SDS011;2159;50.906;7.152;2023-08-30T02:06:49;9.50;;;6.40;;
4290;SDS011;2159;50.906;7.152;2023-08-30T02:09:18;9.00;;;7.10;;
4290;SDS011;2159;50.906;7.152;2023-08-30T02:11:48;11.07;;;6.63;;
4290;SDS011;2159;50.906;7.152;2023-08-30T02:14:17;7.60;;;6.80;;
4290;SDS011;2159;50.906;7.152;2023-08-30T02:16:45;8.70;;;6.73;;
4290;SDS011;2159;50.906;7.152;2023-08-30T02:19:13;10.10;;;6.33;;
4290;SDS011;2159;50.906;7.152;2023-08-30T02:21:44;7.07;;;6.37;;
4290;SDS011;2159;50.906;7.152;2023-08-30T02:24:13;6.60;;;6.00;;
4290;SDS011;2159;50.906;7.152;2023-08-30T02:26:40;6.67;;;5.97;;
4290;SDS011;2159;50.906;7.152;2023-08-30T02:29:08;7.97;;;6.87;;
4290;SDS011;2159;50.906;7.152;2023-08-30T02:31:36;8.10;;;7.33;;
4290;SDS011;2159;50.906;7.152;2023-08-30T02:34:03;7.33;;;6.63;;
4290;SDS011;2159;50.906;7.152;2023-08-30T02:36:31;7.53;;;6.67;;
4290;SDS011;2159;50.906;7.152;2023-08-30T02:39:00;8.63;;;6.80;;
4290;SDS011;2159;50.906;7.152;2023-08-30T02:41:27;8.10;;;6.60;;
4290;SDS011;2159;50.906;7.152;2023-08-30T02:43:55;6.87;;;6.23;;
4290;SDS011;2159;50.906;7.152;2023-08-30T02:46:22;7.97;;;7.27;;
4290;SDS011;2159;50.906;7.152;2023-08-30T02:48:50;7.50;;;6.40;;
4290;SDS011;2159;50.906;7.152;2023-08-30T02:51:17;8.83;;;7.03;;
4290;SDS011;2159;50.906;7.152;2023-08-30T02:53:45;6.90;;;6.20;;
4290;SDS011;2159;50.906;7.152;2023-08-30T02:56:14;8.90;;;6.73;;
4290;SDS011;2159;50.906;7.152;2023-08-30T02:58:41;6.63;;;5.63;;
4290;SDS011;2159;50.906;7.152;2023-08-30T03:01:09;6.60;;;6.00;;
4290;SDS011;2159;50.906;7.152;2023-08-30T03:03:36;7.30;;;6.60;;
4290;SDS011;2159;50.906;7.152;2023-08-30T03:06:04;9.17;;;6.70;;
4290;SDS011;2159;50.906;7.152;2023-08-30T03:08:32;7.60;;;6.10;;
4290;SDS011;2159;50.906;7.152;2023-08-30T03:11:07;7.63;;;6.93;;
4290;SDS011;2159;50.906;7.152;2023-08-30T03:13:36;7.00;;;6.40;;
4290;SDS011;2159;50.906;7.152;2023-08-30T03:16:09;7.73;;;7.00;;
4290;SDS011;2159;50.906;7.152;2023-08-30T03:18:38;7.13;;;6.43;;
4290;SDS011;2159;50.906;7.152;2023-08-30T03:21:05;8.60;;;6.80;;
4290;SDS011;2159;50.906;7.152;2023-08-30T03:23:33;8.43;;;7.10;;
4290;SDS011;2159;50.906;7.152;2023-08-30T03:26:07;9.13;;;8.20;;
4290;SDS011;2159;50.906;7.152;2023-08-30T03:28:36;8.50;;;6.97;;
4290;SDS011;2159;50.906;7.152;2023-08-30T03:31:10;8.27;;;7.30;;
4290;SDS011;2159;50.906;7.152;2023-08-30T03:33:38;11.63;;;7.00;;
4290;SDS011;2159;50.906;7.152;2023-08-30T03:36:11;7.47;;;6.67;;
4290;SDS011;2159;50.906;7.152;2023-08-30T03:38:39;9.80;;;7.27;;
4290;SDS011;2159;50.906;7.152;2023-08-30T03:41:06;9.53;;;7.30;;
4290;SDS011;2159;50.906;7.152;2023-08-30T03:43:34;10.63;;;7.10;;
4290;SDS011;2159;50.906;7.152;2023-08-30T03:46:03;7.43;;;6.70;;
4290;SDS011;2159;50.906;7.152;2023-08-30T03:48:31;7.73;;;6.93;;
4290;SDS011;2159;50.906;7.152;2023-08-30T03:50:59;7.87;;;6.80;;
4290;SDS011;2159;50.906;7.152;2023-08-30T03:53:27;11.90;;;7.07;;
4290;SDS011;2159;50.906;7.152;2023-08-30T03:55:56;9.03;;;6.77;;
4290;SDS011;2159;50.906;7.152;2023-08-30T03:58:23;8.10;;;6.67;;
4290;SDS011;2159;50.906;7.152;2023-08-30T04:00:51;7.30;;;6.60;;
4290;SDS011;2159;50.906;7.152;2023-08-30T04:03:20;9.47;;;6.70;;
4290;SDS011;2159;50.906;7.152;2023-08-30T04:05:48;9.70;;;7.10;;
4290;SDS011;2159;50.906;7.152;2023-08-30T04:08:15;7.70;;;7.00;;
4290;SDS011;2159;50.906;7.152;2023-08-30T04:10:43;8.60;;;7.70;;
4290;SDS011;2159;50.906;7.152;2023-08-30T04:13:13;8.90;;;7.07;;
4290;SDS011;2159;50.906;7.152;2023-08-30T04:15:41;8.30;;;7.50;;
4290;SDS011;2159;50.906;7.152;2023-08-30T04:18:09;10.13;;;8.10;;
4290;SDS011;2159;50.906;7.152;2023-08-30T04:20:42;10.30;;;7.97;;
4290;SDS011;2159;50.906;7.152;2023-08-30T04:23:10;11.10;;;9.03;;
4290;SDS011;2159;50.906;7.152;2023-08-30T04:25:38;13.10;;;9.70;;
4290;SDS011;2159;50.906;7.152;2023-08-30T04:28:05;11.47;;;9.83;;
4290;SDS011;2159;50.906;7.152;2023-08-30T04:30:35;12.27;;;10.07;;
4290;SDS011;2159;50.906;7.152;2023-08-30T04:33:03;10.93;;;9.10;;
4290;SDS011;2159;50.906;7.152;2023-08-30T04:35:31;14.43;;;8.43;;
4290;SDS011;2159;50.906;7.152;2023-08-30T04:38:01;13.10;;;7.63;;
4290;SDS011;2159;50.906;7.152;2023-08-30T04:40:29;8.33;;;7.23;;
4290;SDS011;2159;50.906;7.152;2023-08-30T04:42:59;14.90;;;7.60;;
4290;SDS011;2159;50.906;7.152;2023-08-30T04:45:26;10.80;;;8.03;;
4290;SDS011;2159;50.906;7.152;2023-08-30T04:47:56;9.73;;;8.50;;
4290;SDS011;2159;50.906;7.152;2023-08-30T04:50:23;10.50;;;9.37;;
4290;SDS011;2159;50.906;7.152;2023-08-30T04:52:51;12.13;;;9.20;;
4290;SDS011;2159;50.906;7.152;2023-08-30T04:55:19;13.07;;;10.00;;
4290;SDS011;2159;50.906;7.152;2023-08-30T04:57:47;14.03;;;9.70;;
4290;SDS011;2159;50.906;7.152;2023-08-30T05:00:15;11.63;;;9.93;;
4290;SDS011;2159;50.906;7.152;2023-08-30T05:02:43;10.97;;;9.80;;
4290;SDS011;2159;50.906;7.152;2023-08-30T05:05:12;8.73;;;7.93;;
4290;SDS011;2159;50.906;7.152;2023-08-30T05:07:40;8.97;;;8.03;;
4290;SDS011;2159;50.906;7.152;2023-08-30T05:10:08;8.70;;;7.63;;
4290;SDS011;2159;50.906;7.152;2023-08-30T05:12:37;9.97;;;8.40;;
4290;SDS011;2159;50.906;7.152;2023-08-30T05:15:05;9.70;;;7.70;;
4290;SDS011;2159;50.906;7.152;2023-08-30T05:17:33;10.30;;;8.23;;
4290;SDS011;2159;50.906;7.152;2023-08-30T05:20:00;9.40;;;8.10;;
4290;SDS011;2159;50.906;7.152;2023-08-30T05:22:29;8.13;;;7.37;;
4290;SDS011;2159;50.906;7.152;2023-08-30T05:24:57;8.63;;;7.73;;
4290;SDS011;2159;50.906;7.152;2023-08-30T05:27:24;8.23;;;7.43;;
4290;SDS011;2159;50.906;7.152;2023-08-30T05:29:53;9.90;;;8.27;;
4290;SDS011;2159;50.906;7.152;2023-08-30T05:32:22;9.00;;;7.90;;
4290;SDS011;2159;50.906;7.152;2023-08-30T05:34:49;10.50;;;7.53;;
4290;SDS011;2159;50.906;7.152;2023-08-30T05:37:17;11.00;;;8.13;;
4290;SDS011;2159;50.906;7.152;2023-08-30T05:39:45;9.07;;;7.40;;
4290;SDS011;2159;50.906;7.152;2023-08-30T05:42:12;12.73;;;7.87;;
4290;SDS011;2159;50.906;7.152;2023-08-30T05:44:40;9.20;;;8.23;;
4290;SDS011;2159;50.906;7.152;2023-08-30T05:47:09;9.73;;;8.73;;
4290;SDS011;2159;50.906;7.152;2023-08-30T05:49:41;10.80;;;9.33;;
4290;SDS011;2159;50.906;7.152;2023-08-30T05:52:08;11.33;;;10.13;;
4290;SDS011;2159;50.906;7.152;2023-08-30T05:54:38;19.13;;;9.90;;
4290;SDS011;2159;50.906;7.152;2023-08-30T05:57:06;13.33;;;10.27;;
4290;SDS011;2159;50.906;7.152;2023-08-30T05:59:36;11.70;;;10.10;;
4290;SDS011;2159;50.906;7.152;2023-08-30T06:02:03;11.93;;;10.00;;
4290;SDS011;2159;50.906;7.152;2023-08-30T06:04:33;11.60;;;10.10;;
4290;SDS011;2159;50.906;7.152;2023-08-30T06:07:01;12.97;;;9.90;;
4290;SDS011;2159;50.906;7.152;2023-08-30T06:09:29;14.87;;;9.70;;
4290;SDS011;2159;50.906;7.152;2023-08-30T06:11:57;12.50;;;10.07;;
4290;SDS011;2159;50.906;7.152;2023-08-30T06:14:24;11.93;;;10.07;;
4290;SDS011;2159;50.906;7.152;2023-08-30T06:16:52;11.30;;;9.77;;
4290;SDS011;2159;50.906;7.152;2023-08-30T06:19:20;12.03;;;9.80;;
4290;SDS011;2159;50.906;7.152;2023-08-30T06:21:49;10.10;;;9.10;;
4290;SDS011;2159;50.906;7.152;2023-08-30T06:24:16;11.60;;;10.40;;
4290;SDS011;2159;50.906;7.152;2023-08-30T06:26:44;13.30;;;9.93;;
4290;SDS011;2159;50.906;7.152;2023-08-30T06:29:11;12.63;;;9.90;;
4290;SDS011;2159;50.906;7.152;2023-08-30T06:31:39;11.90;;;9.43;;
4290;SDS011;2159;50.906;7.152;2023-08-30T06:34:08;12.13;;;9.23;;
4290;SDS011;2159;50.906;7.152;2023-08-30T06:36:36;11.27;;;9.60;;
4290;SDS011;2159;50.906;7.152;2023-08-30T06:39:05;10.70;;;9.40;;
4290;SDS011;2159;50.906;7.152;2023-08-30T06:41:32;11.87;;;8.90;;
4290;SDS011;2159;50.906;7.152;2023-08-30T06:44:00;12.20;;;9.70;;
4290;SDS011;2159;50.906;7.152;2023-08-30T06:46:27;12.43;;;9.90;;
4290;SDS011;2159;50.906;7.152;2023-08-30T06:48:58;12.37;;;9.20;;
4290;SDS011;2159;50.906;7.152;2023-08-30T06:51:25;9.67;;;8.50;;
4290;SDS011;2159;50.906;7.152;2023-08-30T06:53:53;11.63;;;9.50;;
4290;SDS011;2159;50.906;7.152;2023-08-30T06:56:23;10.70;;;8.40;;
4290;SDS011;2159;50.906;7.152;2023-08-30T06:58:50;10.27;;;8.10;;
4290;SDS011;2159;50.906;7.152;2023-08-30T07:01:18;13.87;;;8.50;;
4290;SDS011;2159;50.906;7.152;2023-08-30T07:03:45;12.60;;;9.07;;
4290;SDS011;2159;50.906;7.152;2023-08-30T07:06:13;9.70;;;8.40;;
4290;SDS011;2159;50.906;7.152;2023-08-30T07:08:41;9.17;;;8.17;;
4290;SDS011;2159;50.906;7.152;2023-08-30T07:11:09;10.70;;;8.27;;
4290;SDS011;2159;50.906;7.152;2023-08-30T07:13:58;9.53;;;7.47;;
4290;SDS011;2159;50.906;7.152;2023-08-30T07:16:25;10.53;;;8.73;;
4290;SDS011;2159;50.906;7.152;2023-08-30T07:18:53;9.43;;;8.10;;
4290;SDS011;2159;50.906;7.152;2023-08-30T07:21:20;12.83;;;8.33;;
4290;SDS011;2159;50.906;7.152;2023-08-30T07:23:48;11.73;;;7.87;;
4290;SDS011;2159;50.906;7.152;2023-08-30T07:26:16;8.50;;;7.60;;
4290;SDS011;2159;50.906;7.152;2023-08-30T07:28:43;9.40;;;6.97;;
4290;SDS011;2159;50.906;7.152;2023-08-30T07:31:12;11.77;;;6.40;;
4290;SDS011;2159;50.906;7.152;2023-08-30T07:33:43;7.83;;;6.80;;
4290;SDS011;2159;50.906;7.152;2023-08-30T07:36:10;7.87;;;7.07;;
4290;SDS011;2159;50.906;7.152;2023-08-30T07:38:38;9.10;;;7.00;;
4290;SDS011;2159;50.906;7.152;2023-08-30T07:41:06;7.60;;;6.87;;
4290;SDS011;2159;50.906;7.152;2023-08-30T07:43:36;11.83;;;6.53;;
4290;SDS011;2159;50.906;7.152;2023-08-30T07:46:04;7.23;;;6.50;;
4290;SDS011;2159;50.906;7.152;2023-08-30T07:48:32;7.47;;;6.07;;
4290;SDS011;2159;50.906;7.152;2023-08-30T07:51:00;6.90;;;6.20;;
4290;SDS011;2159;50.906;7.152;2023-08-30T07:53:28;5.90;;;5.30;;
4290;SDS011;2159;50.906;7.152;2023-08-30T07:55:57;7.07;;;5.40;;
4290;SDS011;2159;50.906;7.152;2023-08-30T07:58:25;6.10;;;5.50;;
4290;SDS011;2159;50.906;7.152;2023-08-30T08:00:52;5.77;;;5.13;;
4290;SDS011;2159;50.906;7.152;2023-08-30T08:03:20;6.90;;;6.03;;
4290;SDS011;2159;50.906;7.152;2023-08-30T08:05:49;7.13;;;6.03;;
4290;SDS011;2159;50.906;7.152;2023-08-30T08:08:17;5.93;;;5.30;;
4290;SDS011;2159;50.906;7.152;2023-08-30T08:10:45;6.13;;;5.37;;
4290;SDS011;2159;50.906;7.152;2023-08-30T08:13:12;7.70;;;5.63;;
4290;SDS011;2159;50.906;7.152;2023-08-30T08:15:40;5.80;;;5.23;;
4290;SDS011;2159;50.906;7.152;2023-08-30T08:18:08;6.27;;;4.67;;
4290;SDS011;2159;50.906;7.152;2023-08-30T08:20:36;7.03;;;5.07;;
4290;SDS011;2159;50.906;7.152;2023-08-30T08:23:06;10.73;;;5.20;;
4290;SDS011;2159;50.906;7.152;2023-08-30T08:25:34;7.77;;;4.90;;
4290;SDS011;2159;50.906;7.152;2023-08-30T08:28:02;7.77;;;4.27;;
4290;SDS011;2159;50.906;7.152;2023-08-30T08:30:30;5.37;;;4.40;;
4290;SDS011;2159;50.906;7.152;2023-08-30T08:32:57;9.67;;;4.30;;
4290;SDS011;2159;50.906;7.152;2023-08-30T08:35:25;4.80;;;4.07;;
4290;SDS011;2159;50.906;7.152;2023-08-30T08:37:52;4.70;;;4.30;;
4290;SDS011;2159;50.906;7.152;2023-08-30T08:40:21;4.83;;;4.13;;
4290;SDS011;2159;50.906;7.152;2023-08-30T08:43:08;5.73;;;4.20;;
4290;SDS011;2159;50.906;7.152;2023-08-30T08:45:38;4.03;;;3.63;;
4290;SDS011;2159;50.906;7.152;2023-08-30T08:48:05;4.90;;;4.40;;
4290;SDS011;2159;50.906;7.152;2023-08-30T08:50:34;6.83;;;3.87;;
4290;SDS011;2159;50.906;7.152;2023-08-30T08:53:02;4.93;;;3.50;;
4290;SDS011;2159;50.906;7.152;2023-08-30T08:55:31;5.80;;;4.30;;
4290;SDS011;2159;50.906;7.152;2023-08-30T08:58:00;3.83;;;3.43;;
4290;SDS011;2159;50.906;7.152;2023-08-30T09:00:30;7.10;;;4.30;;
4290;SDS011;2159;50.906;7.152;2023-08-30T09:02:57;5.67;;;4.07;;
4290;SDS011;2159;50.906;7.152;2023-08-30T09:05:27;7.57;;;3.67;;
4290;SDS011;2159;50.906;7.152;2023-08-30T09:07:55;4.10;;;3.20;;
4290;SDS011;2159;50.906;7.152;2023-08-30T09:10:23;3.73;;;3.30;;
4290;SDS011;2159;50.906;7.152;2023-08-30T09:12:51;7.83;;;3.60;;
4290;SDS011;2159;50.906;7.152;2023-08-30T09:15:19;3.60;;;3.30;;
4290;SDS011;2159;50.906;7.152;2023-08-30T09:17:48;4.23;;;3.00;;
4290;SDS011;2159;50.906;7.152;2023-08-30T09:20:16;3.43;;;3.13;;
4290;SDS011;2159;50.906;7.152;2023-08-30T09:22:46;3.20;;;2.90;;
4290;SDS011;2159;50.906;7.152;2023-08-30T09:25:22;5.03;;;3.00;;
4290;SDS011;2159;50.906;7.152;2023-08-30T09:27:51;3.93;;;2.60;;
4290;SDS011;2159;50.906;7.152;2023-08-30T09:30:21;3.87;;;2.90;;
4290;SDS011;2159;50.906;7.152;2023-08-30T09:32:48;2.90;;;2.70;;
4290;SDS011;2159;50.906;7.152;2023-08-30T09:35:16;5.50;;;2.67;;
4290;SDS011;2159;50.906;7.152;2023-08-30T09:37:44;2.80;;;2.50;;
4290;SDS011;2159;50.906;7.152;2023-08-30T09:40:11;3.90;;;2.83;;
4290;SDS011;2159;50.906;7.152;2023-08-30T09:42:40;3.07;;;2.77;;
4290;SDS011;2159;50.906;7.152;2023-08-30T09:45:18;4.97;;;2.90;;
4290;SDS011;2159;50.906;7.152;2023-08-30T09:47:46;3.53;;;2.60;;
4290;SDS011;2159;50.906;7.152;2023-08-30T09:50:15;5.50;;;2.90;;
4290;SDS011;2159;50.906;7.152;2023-08-30T09:52:44;3.07;;;2.77;;
4290;SDS011;2159;50.906;7.152;2023-08-30T09:55:12;8.37;;;2.77;;
4290;SDS011;2159;50.906;7.152;2023-08-30T09:57:40;6.40;;;2.90;;
4290;SDS011;2159;50.906;7.152;2023-08-30T10:00:09;3.23;;;3.00;;
4290;SDS011;2159;50.906;7.152;2023-08-30T10:02:40;2.70;;;2.50;;
4290;SDS011;2159;50.906;7.152;2023-08-30T10:05:30;3.83;;;3.00;;
4290;SDS011;2159;50.906;7.152;2023-08-30T10:07:58;5.87;;;2.50;;
4290;SDS011;2159;50.906;7.152;2023-08-30T10:10:26;4.27;;;2.60;;
4290;SDS011;2159;50.906;7.152;2023-08-30T10:12:54;2.83;;;2.53;;
4290;SDS011;2159;50.906;7.152;2023-08-30T10:15:44;3.90;;;3.00;;
4290;SDS011;2159;50.906;7.152;2023-08-30T10:18:15;3.17;;;2.83;;
4290;SDS011;2159;50.906;7.152;2023-08-30T10:20:47;3.10;;;2.80;;
4290;SDS011;2159;50.906;7.152;2023-08-30T10:23:15;4.60;;;2.93;;
4290;SDS011;2159;50.906;7.152;2023-08-30T10:25:44;3.10;;;2.50;;
4290;SDS011;2159;50.906;7.152;2023-08-30T10:28:14;4.13;;;3.20;;
4290;SDS011;2159;50.906;7.152;2023-08-30T10:30:43;4.40;;;3.57;;
4290;SDS011;2159;50.906;7.152;2023-08-30T10:33:15;3.70;;;3.23;;
4290;SDS011;2159;50.906;7.152;2023-08-30T10:35:47;6.87;;;4.17;;
4290;SDS011;2159;50.906;7.152;2023-08-30T10:38:27;4.30;;;3.50;;
4290;SDS011;2159;50.906;7.152;2023-08-30T10:40:54;4.87;;;3.57;;
4290;SDS011;2159;50.906;7.152;2023-08-30T10:43:28;6.03;;;3.20;;
4290;SDS011;2159;50.906;7.152;2023-08-30T10:45:59;7.57;;;3.60;;
4290;SDS011;2159;50.906;7.152;2023-08-30T10:48:34;8.73;;;4.13;;
4290;SDS011;2159;50.906;7.152;2023-08-30T10:51:02;3.73;;;3.43;;
4290;SDS011;2159;50.906;7.152;2023-08-30T10:53:31;4.30;;;3.30;;
4290;SDS011;2159;50.906;7.152;2023-08-30T10:56:02;5.40;;;3.50;;
4290;SDS011;2159;50.906;7.152;2023-08-30T10:58:38;4.07;;;3.77;;
4290;SDS011;2159;50.906;7.152;2023-08-30T11:01:07;4.93;;;3.97;;
4290;SDS011;2159;50.906;7.152;2023-08-30T11:03:38;5.37;;;3.53;;
4290;SDS011;2159;50.906;7.152;2023-08-30T11:06:05;4.67;;;3.50;;
4290;SDS011;2159;50.906;7.152;2023-08-30T11:08:33;4.37;;;3.97;;
4290;SDS011;2159;50.906;7.152;2023-08-30T11:11:02;5.80;;;4.00;;
4290;SDS011;2159;50.906;7.152;2023-08-30T11:13:31;5.63;;;4.60;;
4290;SDS011;2159;50.906;7.152;2023-08-30T11:16:01;5.13;;;4.60;;
4290;SDS011;2159;50.906;7.152;2023-08-30T11:18:30;4.70;;;4.27;;
4290;SDS011;2159;50.906;7.152;2023-08-30T11:21:00;6.20;;;4.50;;
4290;SDS011;2159;50.906;7.152;2023-08-30T11:23:28;6.20;;;4.70;;
4290;SDS011;2159;50.906;7.152;2023-08-30T11:25:56;8.70;;;4.30;;
4290;SDS011;2159;50.906;7.152;2023-08-30T11:28:23;6.83;;;4.10;;
4290;SDS011;2159;50.906;7.152;2023-08-30T11:30:52;4.40;;;4.00;;
4290;SDS011;2159;50.906;7.152;2023-08-30T11:33:20;7.73;;;4.23;;
4290;SDS011;2159;50.906;7.152;2023-08-30T11:35:48;7.33;;;4.63;;
4290;SDS011;2159;50.906;7.152;2023-08-30T11:38:19;5.57;;;4.60;;
4290;SDS011;2159;50.906;7.152;2023-08-30T11:40:50;5.63;;;5.00;;
4290;SDS011;2159;50.906;7.152;2023-08-30T11:43:18;13.23;;;5.70;;
4290;SDS011;2159;50.906;7.152;2023-08-30T11:45:46;13.90;;;5.57;;
4290;SDS011;2159;50.906;7.152;2023-08-30T11:48:14;4.83;;;4.07;;
4290;SDS011;2159;50.906;7.152;2023-08-30T11:50:42;5.97;;;4.47;;
4290;SDS011;2159;50.906;7.152;2023-08-30T11:53:14;8.70;;;3.80;;
4290;SDS011;2159;50.906;7.152;2023-08-30T11:55:43;6.90;;;4.30;;
4290;SDS011;2159;50.906;7.152;2023-08-30T11:58:10;6.00;;;4.20;;
4290;SDS011;2159;50.906;7.152;2023-08-30T12:00:38;5.77;;;3.53;;
4290;SDS011;2159;50.906;7.152;2023-08-30T12:03:06;5.37;;;3.60;;
4290;SDS011;2159;50.906;7.152;2023-08-30T12:05:34;4.00;;;3.60;;
4290;SDS011;2159;50.906;7.152;2023-08-30T12:08:03;3.90;;;3.07;;
4290;SDS011;2159;50.906;7.152;2023-08-30T12:10:30;5.03;;;3.90;;
4290;SDS011;2159;50.906;7.152;2023-08-30T12:13:00;4.20;;;3.73;;
4290;SDS011;2159;50.906;7.152;2023-08-30T12:15:27;4.43;;;3.93;;
4290;SDS011;2159;50.906;7.152;2023-08-30T12:18:05;6.30;;;4.27;;
4290;SDS011;2159;50.906;7.152;2023-08-30T12:20:33;9.30;;;3.83;;
4290;SDS011;2159;50.906;7.152;2023-08-30T12:23:01;5.90;;;4.00;;
4290;SDS011;2159;50.906;7.152;2023-08-30T12:25:29;8.13;;;4.10;;
4290;SDS011;2159;50.906;7.152;2023-08-30T12:28:00;6.77;;;4.10;;
4290;SDS011;2159;50.906;7.152;2023-08-30T12:30:27;9.60;;;4.47;;
4290;SDS011;2159;50.906;7.152;2023-08-30T12:32:59;7.43;;;4.17;;
4290;SDS011;2159;50.906;7.152;2023-08-30T12:35:27;6.20;;;4.33;;
4290;SDS011;2159;50.906;7.152;2023-08-30T12:37:55;5.10;;;4.00;;
4290;SDS011;2159;50.906;7.152;2023-08-30T12:40:22;5.40;;;3.87;;
4290;SDS011;2159;50.906;7.152;2023-08-30T12:42:50;4.67;;;4.13;;
4290;SDS011;2159;50.906;7.152;2023-08-30T12:45:18;5.40;;;4.33;;
4290;SDS011;2159;50.906;7.152;2023-08-30T12:47:46;4.37;;;3.97;;
4290;SDS011;2159;50.906;7.152;2023-08-30T12:50:14;5.00;;;4.40;;
4290;SDS011;2159;50.906;7.152;2023-08-30T12:52:41;4.40;;;3.97;;
4290;SDS011;2159;50.906;7.152;2023-08-30T12:55:09;5.70;;;3.80;;
4290;SDS011;2159;50.906;7.152;2023-08-30T12:57:38;9.13;;;4.30;;
4290;SDS011;2159;50.906;7.152;2023-08-30T13:00:06;6.50;;;4.53;;
4290;SDS011;2159;50.906;7.152;2023-08-30T13:02:35;10.90;;;4.20;;
4290;SDS011;2159;50.906;7.152;2023-08-30T13:05:03;3.67;;;3.37;;
4290;SDS011;2159;50.906;7.152;2023-08-30T13:07:31;8.33;;;3.03;;
4290;SDS011;2159;50.906;7.152;2023-08-30T13:10:01;2.83;;;2.60;;
4290;SDS011;2159;50.906;7.152;2023-08-30T13:12:29;7.03;;;3.13;;
4290;SDS011;2159;50.906;7.152;2023-08-30T13:14:56;2.90;;;2.30;;
4290;SDS011;2159;50.906;7.152;2023-08-30T13:17:24;2.97;;;2.20;;
4290;SDS011;2159;50.906;7.152;2023-08-30T13:19:53;2.30;;;2.10;;
4290;SDS011;2159;50.906;7.152;2023-08-30T13:22:21;5.13;;;2.10;;
4290;SDS011;2159;50.906;7.152;2023-08-30T13:24:49;2.63;;;1.90;;
4290;SDS011;2159;50.906;7.152;2023-08-30T13:27:17;2.60;;;1.80;;
4290;SDS011;2159;50.906;7.152;2023-08-30T13:29:44;2.83;;;2.20;;
4290;SDS011;2159;50.906;7.152;2023-08-30T13:32:12;8.20;;;2.40;;
4290;SDS011;2159;50.906;7.152;2023-08-30T13:34:39;4.53;;;2.50;;
4290;SDS011;2159;50.906;7.152;2023-08-30T13:37:11;2.20;;;2.00;;
4290;SDS011;2159;50.906;7.152;2023-08-30T13:39:39;2.50;;;2.30;;
4290;SDS011;2159;50.906;7.152;2023-08-30T13:42:07;12.90;;;2.50;;
4290;SDS011;2159;50.906;7.152;2023-08-30T13:44:34;4.47;;;2.33;;
4290;SDS011;2159;50.906;7.152;2023-08-30T13:47:03;5.20;;;2.37;;
4290;SDS011;2159;50.906;7.152;2023-08-30T13:49:31;2.30;;;2.10;;
4290;SDS011;2159;50.906;7.152;2023-08-30T13:51:59;15.00;;;3.13;;
4290;SDS011;2159;50.906;7.152;2023-08-30T13:54:28;6.33;;;1.80;;
4290;SDS011;2159;50.906;7.152;2023-08-30T13:56:56;2.97;;;2.27;;
4290;SDS011;2159;50.906;7.152;2023-08-30T13:59:24;2.23;;;2.13;;
4290;SDS011;2159;50.906;7.152;2023-08-30T14:01:52;3.47;;;2.17;;
4290;SDS011;2159;50.906;7.152;2023-08-30T14:04:20;5.97;;;2.30;;
4290;SDS011;2159;50.906;7.152;2023-08-30T14:06:48;2.47;;;2.10;;
4290;SDS011;2159;50.906;7.152;2023-08-30T14:09:15;5.80;;;2.23;;
4290;SDS011;2159;50.906;7.152;2023-08-30T14:11:44;5.47;;;2.20;;
4290;SDS011;2159;50.906;7.152;2023-08-30T14:14:12;2.40;;;2.00;;
4290;SDS011;2159;50.906;7.152;2023-08-30T14:16:39;6.47;;;2.93;;
4290;SDS011;2159;50.906;7.152;2023-08-30T14:19:07;3.93;;;1.90;;
4290;SDS011;2159;50.906;7.152;2023-08-30T14:21:35;3.23;;;2.10;;
4290;SDS011;2159;50.906;7.152;2023-08-30T14:24:02;2.20;;;2.00;;
4290;SDS011;2159;50.906;7.152;2023-08-30T14:26:30;2.07;;;1.87;;
4290;SDS011;2159;50.906;7.152;2023-08-30T14:28:59;7.10;;;2.60;;
4290;SDS011;2159;50.906;7.152;2023-08-30T14:31:26;3.63;;;2.37;;
4290;SDS011;2159;50.906;7.152;2023-08-30T14:33:56;3.40;;;2.50;;
4290;SDS011;2159;50.906;7.152;2023-08-30T14:36:24;4.50;;;2.67;;
4290;SDS011;2159;50.906;7.152;2023-08-30T14:38:52;4.43;;;2.40;;
4290;SDS011;2159;50.906;7.152;2023-08-30T14:41:20;2.50;;;2.30;;
4290;SDS011;2159;50.906;7.152;2023-08-30T14:43:47;3.00;;;2.30;;
4290;SDS011;2159;50.906;7.152;2023-08-30T14:46:16;2.63;;;2.43;;
4290;SDS011;2159;50.906;7.152;2023-08-30T14:48:49;3.27;;;2.70;;
4290;SDS011;2159;50.906;7.152;2023-08-30T14:51:17;4.30;;;3.00;;
4290;SDS011;2159;50.906;7.152;2023-08-30T14:53:45;5.70;;;3.03;;
4290;SDS011;2159;50.906;7.152;2023-08-30T14:56:12;3.47;;;2.83;;
4290;SDS011;2159;50.906;7.152;2023-08-30T14:58:40;7.23;;;3.13;;
4290;SDS011;2159;50.906;7.152;2023-08-30T15:01:10;4.30;;;2.90;;
4290;SDS011;2159;50.906;7.152;2023-08-30T15:03:39;3.10;;;2.80;;
4290;SDS011;2159;50.906;7.152;2023-08-30T15:06:07;5.70;;;3.20;;
4290;SDS011;2159;50.906;7.152;2023-08-30T15:08:35;3.23;;;2.93;;
4290;SDS011;2159;50.906;7.152;2023-08-30T15:11:02;9.33;;;2.90;;
4290;SDS011;2159;50.906;7.152;2023-08-30T15:13:30;3.53;;;3.23;;
4290;SDS011;2159;50.906;7.152;2023-08-30T15:15:58;3.03;;;2.83;;
4290;SDS011;2159;50.906;7.152;2023-08-30T15:18:25;2.90;;;2.70;;
4290;SDS011;2159;50.906;7.152;2023-08-30T15:20:54;3.50;;;2.90;;
4290;SDS011;2159;50.906;7.152;2023-08-30T15:23:26;3.17;;;2.97;;